Time;durP1;ratioP1;P1;durP2;ratioP2;P2;SDS_P1;SDS_P2;PMS_P1;PMS_P2;Temp;Humidity;BMP_temperature;BMP_pressure;BME280_temperature;BME280_humidity;BME280_pressure;Samples;Min_cycle;Max_cycle;Signal;HPM_P1;HPM_P2
2021/10/26 00:02:09;;;;;;;78.87;31.77;;;;;;;;;;5008677;28;20544;-70
2021/10/26 00:04:34;;;;;;;81.40;33.57;;;;;;;;;;5010051;28;20022;-71
2021/10/26 00:07:00;;;;;;;83.93;33.37;;;;;;;;;;5025542;28;20450;-71
2021/10/26 00:09:26;;;;;;;80.47;32.03;;;;;;;;;;5024827;28;20026;-70
2021/10/26 00:11:51;;;;;;;88.20;35.73;;;;;;;;;;5008383;28;20034;-71
2021/10/26 00:14:17;;;;;;;77.40;32.83;;;;;;;;;;5009467;28;20084;-71
2021/10/26 00:16:42;;;;;;;86.63;33.97;;;;;;;;;;5010099;28;20080;-71
2021/10/26 00:19:08;;;;;;;92.43;33.40;;;;;;;;;;5008625;28;20034;-71
2021/10/26 00:21:34;;;;;;;77.57;32.03;;;;;;;;;;5009829;28;20347;-71
2021/10/26 00:23:59;;;;;;;80.33;31.17;;;;;;;;;;5009782;28;20022;-69
2021/10/26 00:26:25;;;;;;;78.07;31.97;;;;;;;;;;5024515;28;20025;-71
2021/10/26 00:28:53;;;;;;;76.27;30.13;;;;;;;;;;5024643;28;20115;-71
2021/10/26 00:31:19;;;;;;;74.37;32.47;;;;;;;;;;5024193;28;20058;-71
2021/10/26 00:33:45;;;;;;;78.87;32.07;;;;;;;;;;5024795;28;20034;-70
2021/10/26 00:36:10;;;;;;;71.93;30.17;;;;;;;;;;5009580;28;20041;-71
2021/10/26 00:38:38;;;;;;;71.13;31.20;;;;;;;;;;5009251;28;20111;-70
2021/10/26 00:41:04;;;;;;;77.23;31.70;;;;;;;;;;5024421;28;20026;-71
2021/10/26 00:43:30;;;;;;;86.63;33.87;;;;;;;;;;5009366;28;20018;-70
2021/10/26 00:45:55;;;;;;;73.23;30.03;;;;;;;;;;5008223;28;20021;-70
2021/10/26 00:48:21;;;;;;;80.63;31.37;;;;;;;;;;5010014;28;20026;-72
2021/10/26 00:50:47;;;;;;;79.37;30.90;;;;;;;;;;5009481;28;20390;-72
2021/10/26 00:53:17;;;;;;;77.70;30.40;;;;;;;;;;5024614;28;20439;-70
2021/10/26 00:55:43;;;;;;;73.17;29.57;;;;;;;;;;5024467;28;20034;-70
2021/10/26 00:58:09;;;;;;;73.03;30.57;;;;;;;;;;5024704;28;20124;-72
2021/10/26 01:00:34;;;;;;;84.03;31.63;;;;;;;;;;5009101;28;20101;-72
2021/10/26 01:03:00;;;;;;;69.33;29.23;;;;;;;;;;5009389;28;20322;-71
2021/10/26 01:05:26;;;;;;;77.60;29.90;;;;;;;;;;5009044;28;20327;-71
2021/10/26 01:07:52;;;;;;;79.27;32.57;;;;;;;;;;5009999;28;20029;-72
2021/10/26 01:10:18;;;;;;;83.20;32.90;;;;;;;;;;5013020;28;20470;-69
2021/10/26 01:12:44;;;;;;;85.53;31.73;;;;;;;;;;5011914;28;20472;-70
2021/10/26 01:15:10;;;;;;;79.33;30.07;;;;;;;;;;5028263;28;20034;-72
2021/10/26 01:17:36;;;;;;;69.23;29.37;;;;;;;;;;5027890;28;20084;-71
2021/10/26 01:20:03;;;;;;;78.83;29.77;;;;;;;;;;5011382;28;20051;-72
2021/10/26 01:22:30;;;;;;;74.47;30.13;;;;;;;;;;5027450;28;20021;-71
2021/10/26 01:24:56;;;;;;;66.57;27.53;;;;;;;;;;5011497;28;20056;-70
2021/10/26 01:27:22;;;;;;;78.60;29.67;;;;;;;;;;5012320;28;20026;-72
2021/10/26 01:29:48;;;;;;;59.07;25.97;;;;;;;;;;5027788;28;20014;-70
2021/10/26 01:32:16;;;;;;;71.90;28.27;;;;;;;;;;5027808;28;20053;-71
2021/10/26 01:34:42;;;;;;;64.73;28.10;;;;;;;;;;5011211;28;20029;-69
2021/10/26 01:37:10;;;;;;;68.50;29.77;;;;;;;;;;5012621;28;20156;-70
2021/10/26 01:39:37;;;;;;;67.80;27.23;;;;;;;;;;5012372;28;20022;-70
2021/10/26 01:42:04;;;;;;;68.23;25.87;;;;;;;;;;5012464;28;20571;-71
2021/10/26 01:44:31;;;;;;;75.33;28.10;;;;;;;;;;5027334;28;20026;-70
2021/10/26 01:46:56;;;;;;;70.90;28.40;;;;;;;;;;5027456;28;20026;-71
2021/10/26 01:49:25;;;;;;;66.97;26.93;;;;;;;;;;5012190;28;20026;-72
2021/10/26 01:51:51;;;;;;;66.93;28.20;;;;;;;;;;5027577;28;20040;-70
2021/10/26 01:54:18;;;;;;;62.73;27.43;;;;;;;;;;5012343;28;20034;-72
2021/10/26 01:56:44;;;;;;;69.37;26.83;;;;;;;;;;5012239;28;20037;-73
2021/10/26 01:59:10;;;;;;;70.30;28.97;;;;;;;;;;5027318;28;20030;-71
2021/10/26 02:01:36;;;;;;;68.43;27.87;;;;;;;;;;5010647;28;20053;-71
2021/10/26 02:04:03;;;;;;;61.57;26.93;;;;;;;;;;5012416;28;20399;-71
2021/10/26 02:06:29;;;;;;;70.13;26.27;;;;;;;;;;5027190;28;20121;-71
2021/10/26 02:08:56;;;;;;;71.23;28.63;;;;;;;;;;5027424;28;20113;-72
2021/10/26 02:11:22;;;;;;;68.53;27.67;;;;;;;;;;5011686;28;20133;-74
2021/10/26 02:13:48;;;;;;;75.07;27.20;;;;;;;;;;5012636;28;20733;-71
2021/10/26 02:16:14;;;;;;;72.20;28.43;;;;;;;;;;5027217;28;20045;-72
2021/10/26 02:18:39;;;;;;;73.63;28.90;;;;;;;;;;5026649;28;20100;-70
2021/10/26 02:21:05;;;;;;;80.23;30.47;;;;;;;;;;5011837;28;20029;-71
2021/10/26 02:23:31;;;;;;;70.27;28.20;;;;;;;;;;5010061;28;20026;-70
2021/10/26 02:25:57;;;;;;;67.97;29.93;;;;;;;;;;5026913;28;20088;-72
2021/10/26 02:28:23;;;;;;;69.30;29.07;;;;;;;;;;5026586;28;20030;-71
2021/10/26 02:30:49;;;;;;;66.63;28.17;;;;;;;;;;5011523;28;20108;-71
2021/10/26 02:33:14;;;;;;;69.63;26.97;;;;;;;;;;5026383;28;20141;-70
2021/10/26 02:35:40;;;;;;;68.53;27.57;;;;;;;;;;5011340;28;20029;-70
2021/10/26 02:38:06;;;;;;;65.53;26.80;;;;;;;;;;5011433;28;20029;-69
2021/10/26 02:40:32;;;;;;;70.60;27.67;;;;;;;;;;5011869;28;20140;-71
2021/10/26 02:42:58;;;;;;;68.47;28.37;;;;;;;;;;5009907;28;20125;-71
2021/10/26 02:45:30;;;;;;;79.47;27.73;;;;;;;;;;5026289;28;20128;-71
2021/10/26 02:47:56;;;;;;;;;;;;;;;;;;5026880;28;20505;-71
2021/10/26 02:50:21;;;;;;;70.50;28.47;;;;;;;;;;5011302;28;19910;-71
2021/10/26 02:52:47;;;;;;;63.57;26.60;;;;;;;;;;5026437;28;20053;-71
2021/10/26 02:55:13;;;;;;;82.50;29.70;;;;;;;;;;5011915;28;20025;-71
2021/10/26 02:57:38;;;;;;;67.33;27.57;;;;;;;;;;5028508;28;20478;-73
2021/10/26 03:00:10;;;;;;;70.23;29.03;;;;;;;;;;5010797;28;20058;-70
2021/10/26 03:02:40;;;;;;;59.10;25.37;;;;;;;;;;5011304;28;20053;-71
2021/10/26 03:05:07;;;;;;;82.60;27.87;;;;;;;;;;5009431;28;20045;-70
2021/10/26 03:07:44;;;;;;;78.07;30.50;;;;;;;;;;5025728;28;20037;-69
2021/10/26 03:10:10;;;;;;;72.20;30.17;;;;;;;;;;5010845;28;20033;-70
2021/10/26 03:12:36;;;;;;;89.83;34.13;;;;;;;;;;5010463;28;20038;-70
2021/10/26 03:15:04;;;;;;;68.33;26.80;;;;;;;;;;5025733;28;20037;-71
2021/10/26 03:17:30;;;;;;;78.67;28.47;;;;;;;;;;5025812;28;20022;-73
2021/10/26 03:19:55;;;;;;;82.27;28.30;;;;;;;;;;5011478;28;20478;-73
2021/10/26 03:22:20;;;;;;;75.50;30.53;;;;;;;;;;5010016;28;20030;-72
2021/10/26 03:24:46;;;;;;;77.53;30.67;;;;;;;;;;5026394;28;20495;-72
2021/10/26 03:27:12;;;;;;;73.83;26.80;;;;;;;;;;5011709;28;20541;-72
2021/10/26 03:29:37;;;;;;;74.63;28.53;;;;;;;;;;5010054;28;20385;-74
2021/10/26 03:32:04;;;;;;;75.80;27.23;;;;;;;;;;5010704;28;20124;-73
2021/10/26 03:34:29;;;;;;;80.33;28.67;;;;;;;;;;5011324;28;20473;-73
2021/10/26 03:36:56;;;;;;;74.50;29.57;;;;;;;;;;5011668;28;20053;-72
2021/10/26 03:39:22;;;;;;;71.63;28.23;;;;;;;;;;5011561;28;20389;-73
2021/10/26 03:41:48;;;;;;;58.37;26.47;;;;;;;;;;5012354;28;20029;-72
2021/10/26 03:44:13;;;;;;;72.80;26.33;;;;;;;;;;5011344;28;20068;-72
2021/10/26 03:46:39;;;;;;;75.27;27.13;;;;;;;;;;5011874;28;20446;-72
2021/10/26 03:49:05;;;;;;;79.87;31.37;;;;;;;;;;5011424;28;20037;-72
2021/10/26 03:51:31;;;;;;;83.33;29.70;;;;;;;;;;5010871;28;20038;-72
2021/10/26 03:53:59;;;;;;;61.57;26.63;;;;;;;;;;5026058;28;20137;-72
2021/10/26 03:56:25;;;;;;;76.23;28.63;;;;;;;;;;5011009;28;20041;-73
2021/10/26 03:58:51;;;;;;;78.87;30.37;;;;;;;;;;5026523;28;20025;-73
2021/10/26 04:01:17;;;;;;;75.10;29.90;;;;;;;;;;5026309;28;20057;-72
2021/10/26 04:03:42;;;;;;;74.63;28.50;;;;;;;;;;5025590;28;20034;-71
2021/10/26 04:06:12;;;;;;;74.23;29.77;;;;;;;;;;5025766;28;20025;-73
2021/10/26 04:11:11;;;;;;;73.30;26.73;;;;;;;;;;5010434;28;20037;-72
2021/10/26 04:13:36;;;;;;;85.10;29.53;;;;;;;;;;5009272;28;20061;-72
2021/10/26 04:16:02;;;;;;;65.13;27.30;;;;;;;;;;5025723;28;20062;-72
2021/10/26 04:18:28;;;;;;;63.70;25.97;;;;;;;;;;5025402;28;20044;-72
2021/10/26 04:20:54;;;;;;;72.27;27.83;;;;;;;;;;5008192;28;20112;-72
2021/10/26 04:23:21;;;;;;;76.47;29.07;;;;;;;;;;5010602;28;20120;-72
2021/10/26 04:25:46;;;;;;;75.07;28.10;;;;;;;;;;5008969;28;20076;-71
2021/10/26 04:28:12;;;;;;;71.13;27.60;;;;;;;;;;5010237;28;20038;-72
2021/10/26 04:30:38;;;;;;;73.00;26.73;;;;;;;;;;5025376;28;20058;-72
2021/10/26 04:33:05;;;;;;;73.93;27.17;;;;;;;;;;5025320;28;20732;-71
2021/10/26 04:35:31;;;;;;;70.73;25.43;;;;;;;;;;5010129;28;20032;-72
2021/10/26 04:37:57;;;;;;;76.03;30.23;;;;;;;;;;5008910;28;20034;-72
2021/10/26 04:40:23;;;;;;;75.17;30.47;;;;;;;;;;5025255;28;20021;-71
2021/10/26 04:42:48;;;;;;;81.63;27.73;;;;;;;;;;5025756;28;20042;-72
2021/10/26 04:45:14;;;;;;;66.67;26.90;;;;;;;;;;5014542;28;20030;-72
2021/10/26 04:47:44;;;;;;;74.50;29.53;;;;;;;;;;5029374;28;20137;-72
2021/10/26 04:50:10;;;;;;;80.93;30.40;;;;;;;;;;5013035;28;20040;-72
2021/10/26 04:52:36;;;;;;;69.30;27.60;;;;;;;;;;5013684;28;20097;-73
2021/10/26 04:55:02;;;;;;;68.13;27.07;;;;;;;;;;5013833;28;20033;-71
2021/10/26 04:57:28;;;;;;;72.77;32.50;;;;;;;;;;5028784;28;20230;-74
2021/10/26 04:59:55;;;;;;;65.77;25.87;;;;;;;;;;5013994;28;20060;-72
2021/10/26 05:02:21;;;;;;;81.33;30.57;;;;;;;;;;5013768;28;20037;-73
2021/10/26 05:04:47;;;;;;;69.63;27.90;;;;;;;;;;5013670;28;20042;-72
2021/10/26 05:07:13;;;;;;;79.70;28.73;;;;;;;;;;5013782;28;20053;-72
2021/10/26 05:09:39;;;;;;;69.87;26.27;;;;;;;;;;5028720;28;20030;-72
2021/10/26 05:12:05;;;;;;;82.30;28.97;;;;;;;;;;5013614;28;20026;-73
2021/10/26 05:14:31;;;;;;;71.13;28.57;;;;;;;;;;5028102;28;20117;-74
2021/10/26 05:16:57;;;;;;;69.53;29.03;;;;;;;;;;5013355;28;20057;-73
2021/10/26 05:19:24;;;;;;;78.60;29.73;;;;;;;;;;5028678;28;20117;-72
2021/10/26 05:21:49;;;;;;;72.73;30.93;;;;;;;;;;5028427;28;20045;-73
2021/10/26 05:24:16;;;;;;;70.83;27.57;;;;;;;;;;5013679;28;20033;-73
2021/10/26 05:26:42;;;;;;;83.80;29.13;;;;;;;;;;5028864;28;20357;-73
2021/10/26 05:29:11;;;;;;;70.57;27.30;;;;;;;;;;5011565;28;20030;-71
2021/10/26 05:31:38;;;;;;;90.07;29.07;;;;;;;;;;5012760;28;20081;-70
2021/10/26 05:34:08;;;;;;;70.53;27.37;;;;;;;;;;5012496;28;20022;-72
2021/10/26 05:36:35;;;;;;;70.43;27.50;;;;;;;;;;5012570;28;20109;-71
2021/10/26 05:39:00;;;;;;;64.37;25.27;;;;;;;;;;5012421;28;20038;-70
2021/10/26 05:41:28;;;;;;;66.73;26.60;;;;;;;;;;5027479;28;20026;-70
2021/10/26 05:43:53;;;;;;;71.97;29.53;;;;;;;;;;5012642;28;20060;-70
2021/10/26 05:46:19;;;;;;;75.30;29.03;;;;;;;;;;5027376;28;20101;-70
2021/10/26 05:48:45;;;;;;;73.00;25.13;;;;;;;;;;5027355;28;20150;-69
2021/10/26 05:51:11;;;;;;;76.40;26.83;;;;;;;;;;5012421;28;20104;-72
2021/10/26 05:53:36;;;;;;;75.37;28.80;;;;;;;;;;5010040;28;20470;-72
2021/10/26 05:56:02;;;;;;;77.03;27.17;;;;;;;;;;5012549;28;20458;-72
2021/10/26 05:58:28;;;;;;;75.50;26.03;;;;;;;;;;5026817;28;20038;-73
2021/10/26 06:00:54;;;;;;;71.77;25.80;;;;;;;;;;5012006;28;20043;-72
2021/10/26 06:03:19;;;;;;;68.00;26.07;;;;;;;;;;5027411;28;20033;-72
2021/10/26 06:05:45;;;;;;;71.40;26.07;;;;;;;;;;5012113;28;20030;-71
2021/10/26 06:08:11;;;;;;;81.47;30.70;;;;;;;;;;5012017;28;20113;-71
2021/10/26 06:10:42;;;;;;;70.57;28.20;;;;;;;;;;5004706;28;20117;-70
2021/10/26 06:13:12;;;;;;;71.83;27.43;;;;;;;;;;4996255;28;20056;-71
2021/10/26 06:15:39;;;;;;;66.87;26.80;;;;;;;;;;5025970;28;20117;-71
2021/10/26 06:18:05;;;;;;;65.73;27.40;;;;;;;;;;5009428;28;20097;-70
2021/10/26 06:20:31;;;;;;;74.63;26.80;;;;;;;;;;5026450;28;20057;-73
2021/10/26 06:22:57;;;;;;;75.20;27.13;;;;;;;;;;5001996;28;20072;-71
2021/10/26 06:25:22;;;;;;;69.53;26.77;;;;;;;;;;5008775;28;20069;-71
2021/10/26 06:27:48;;;;;;;73.83;27.80;;;;;;;;;;4992346;28;20030;-71
2021/10/26 06:30:14;;;;;;;77.07;28.40;;;;;;;;;;5005649;28;20038;-71
2021/10/26 06:32:41;;;;;;;78.57;27.57;;;;;;;;;;4991061;28;20054;-72
2021/10/26 06:35:08;;;;;;;73.80;28.43;;;;;;;;;;5010863;28;20076;-72
2021/10/26 06:37:35;;;;;;;59.07;26.07;;;;;;;;;;4982554;28;20164;-74
2021/10/26 06:40:02;;;;;;;70.93;28.43;;;;;;;;;;5002683;28;20351;-72
2021/10/26 06:42:27;;;;;;;61.70;26.13;;;;;;;;;;4983194;28;20058;-72
2021/10/26 06:44:53;;;;;;;74.37;27.10;;;;;;;;;;4999947;28;20077;-74
2021/10/26 06:47:19;;;;;;;70.10;27.37;;;;;;;;;;4985780;28;20022;-73
2021/10/26 06:49:46;;;;;;;70.10;25.40;;;;;;;;;;5001215;28;20066;-73
2021/10/26 06:52:13;;;;;;;69.40;26.10;;;;;;;;;;4985117;28;20398;-74
2021/10/26 06:54:39;;;;;;;80.77;29.20;;;;;;;;;;4998120;28;20042;-74
2021/10/26 06:57:05;;;;;;;66.20;26.57;;;;;;;;;;4998877;28;20038;-73
2021/10/26 06:59:30;;;;;;;70.03;27.03;;;;;;;;;;4998923;28;20647;-73
2021/10/26 07:01:56;;;;;;;63.83;26.20;;;;;;;;;;4983006;28;20042;-73
2021/10/26 07:04:21;;;;;;;74.03;27.67;;;;;;;;;;5000871;28;20077;-73
2021/10/26 07:06:47;;;;;;;63.43;25.87;;;;;;;;;;4998310;28;20022;-74
2021/10/26 07:09:12;;;;;;;76.13;26.33;;;;;;;;;;4986962;28;20065;-73
2021/10/26 07:11:38;;;;;;;64.20;25.77;;;;;;;;;;4984766;28;20044;-73
2021/10/26 07:14:04;;;;;;;80.87;28.47;;;;;;;;;;4985037;28;20084;-73
2021/10/26 07:16:29;;;;;;;74.87;28.43;;;;;;;;;;5000694;28;20035;-73
2021/10/26 07:18:57;;;;;;;75.27;26.77;;;;;;;;;;4986085;28;20037;-72
2021/10/26 07:21:22;;;;;;;65.37;25.70;;;;;;;;;;4998779;28;20037;-73
2021/10/26 07:23:48;;;;;;;67.40;26.60;;;;;;;;;;4985726;28;20389;-73
2021/10/26 07:26:13;;;;;;;69.30;27.80;;;;;;;;;;4985223;28;20456;-73
2021/10/26 07:28:39;;;;;;;61.67;26.07;;;;;;;;;;4985513;28;20034;-73
2021/10/26 07:31:04;;;;;;;79.23;31.87;;;;;;;;;;4998617;28;20034;-74
2021/10/26 07:33:33;;;;;;;63.47;24.43;;;;;;;;;;5000614;28;20387;-73
2021/10/26 07:35:59;;;;;;;82.60;27.40;;;;;;;;;;4999892;28;20038;-73
2021/10/26 07:38:34;;;;;;;69.23;25.40;;;;;;;;;;4998243;28;20125;-73
2021/10/26 07:41:00;;;;;;;62.23;24.27;;;;;;;;;;4998078;28;20117;-74
2021/10/26 07:43:29;;;;;;;61.70;25.70;;;;;;;;;;4983584;28;20053;-73
2021/10/26 07:45:57;;;;;;;66.13;25.67;;;;;;;;;;4998545;28;20026;-74
2021/10/26 07:48:24;;;;;;;61.27;25.13;;;;;;;;;;5000548;28;20018;-74
2021/10/26 07:50:51;;;;;;;68.30;25.47;;;;;;;;;;4985838;28;20026;-74
2021/10/26 07:53:17;;;;;;;61.90;25.90;;;;;;;;;;4988028;28;20105;-76
2021/10/26 07:55:45;;;;;;;64.57;24.90;;;;;;;;;;5000853;28;20655;-73
2021/10/26 07:58:11;;;;;;;68.90;26.47;;;;;;;;;;5003521;28;20038;-73
2021/10/26 08:00:37;;;;;;;66.30;25.37;;;;;;;;;;5000659;28;20037;-74
2021/10/26 08:03:03;;;;;;;64.20;25.70;;;;;;;;;;4988728;28;20391;-74
2021/10/26 08:05:29;;;;;;;62.70;25.53;;;;;;;;;;5004735;28;20018;-73
2021/10/26 08:07:56;;;;;;;72.37;26.17;;;;;;;;;;4987702;28;20109;-71
2021/10/26 08:10:23;;;;;;;66.87;24.83;;;;;;;;;;4997659;28;20116;-73
2021/10/26 08:12:48;;;;;;;68.67;25.77;;;;;;;;;;5000580;28;20556;-74
2021/10/26 08:15:14;;;;;;;58.73;25.73;;;;;;;;;;4984936;28;20030;-73
2021/10/26 08:17:40;;;;;;;54.90;22.10;;;;;;;;;;4983811;28;20036;-73
2021/10/26 08:20:07;;;;;;;50.80;21.27;;;;;;;;;;4988676;28;20478;-74
2021/10/26 08:22:38;;;;;;;56.23;22.30;;;;;;;;;;4980892;28;20030;-76
2021/10/26 08:25:09;;;;;;;56.47;23.60;;;;;;;;;;5000159;28;20084;-73
2021/10/26 08:27:37;;;;;;;64.70;23.17;;;;;;;;;;4984471;28;20061;-74
2021/10/26 08:30:26;;;;;;;53.17;24.60;;;;;;;;;;5001251;28;20030;-73
2021/10/26 08:32:56;;;;;;;61.67;25.10;;;;;;;;;;4983658;28;20050;-75
2021/10/26 08:35:25;;;;;;;59.07;24.23;;;;;;;;;;5000203;28;20033;-74
2021/10/26 08:38:02;;;;;;;60.67;23.43;;;;;;;;;;4999667;28;20030;-74
2021/10/26 08:40:29;;;;;;;61.20;24.40;;;;;;;;;;4983900;28;20474;-73
2021/10/26 08:42:57;;;;;;;63.00;25.17;;;;;;;;;;5000510;28;20046;-74
2021/10/26 08:45:25;;;;;;;81.57;26.93;;;;;;;;;;4999779;28;20026;-73
2021/10/26 08:47:53;;;;;;;52.97;22.97;;;;;;;;;;4977460;28;20027;-74
2021/10/26 08:50:20;;;;;;;74.30;24.97;;;;;;;;;;4998229;28;20084;-73
2021/10/26 08:52:46;;;;;;;71.27;28.07;;;;;;;;;;4998738;28;20034;-75
2021/10/26 08:55:13;;;;;;;63.50;25.53;;;;;;;;;;4985835;28;20478;-73
2021/10/26 08:57:39;;;;;;;55.77;21.83;;;;;;;;;;4984152;28;20066;-72
2021/10/26 09:00:07;;;;;;;57.33;22.70;;;;;;;;;;4998774;28;20466;-75
2021/10/26 09:02:42;;;;;;;54.97;22.03;;;;;;;;;;4982882;28;20038;-73
2021/10/26 09:05:19;;;;;;;55.20;22.80;;;;;;;;;;4982397;28;20404;-72
2021/10/26 09:08:05;;;;;;;62.50;21.77;;;;;;;;;;4999699;28;20041;-73
2021/10/26 09:10:34;;;;;;;54.47;23.17;;;;;;;;;;4997204;28;20030;-74
2021/10/26 09:18:32;;;;;;;44.83;18.13;;;;;;;;;;4984294;28;20382;-73
2021/10/26 09:20:58;;;;;;;46.03;18.83;;;;;;;;;;4997686;28;20084;-73
2021/10/26 09:23:27;;;;;;;51.53;20.13;;;;;;;;;;4983582;28;20187;-73
2021/10/26 09:25:57;;;;;;;57.13;19.90;;;;;;;;;;4984017;28;20602;-73
2021/10/26 09:28:23;;;;;;;56.63;22.67;;;;;;;;;;4981368;28;20022;-75
2021/10/26 09:31:08;;;;;;;54.53;22.20;;;;;;;;;;4985408;28;20061;-73
2021/10/26 09:33:40;;;;;;;67.27;23.47;;;;;;;;;;4988705;28;20046;-73
2021/10/26 09:36:32;;;;;;;60.03;24.37;;;;;;;;;;4986632;28;20042;-73
2021/10/26 09:39:07;;;;;;;49.30;20.97;;;;;;;;;;4988094;28;20031;-73
2021/10/26 09:41:58;;;;;;;52.40;22.50;;;;;;;;;;4989869;28;20130;-75
2021/10/26 09:44:27;;;;;;;57.60;22.33;;;;;;;;;;5000310;28;20698;-75
2021/10/26 09:47:02;;;;;;;57.77;23.20;;;;;;;;;;4988271;28;20048;-73
2021/10/26 09:49:38;;;;;;;49.63;22.00;;;;;;;;;;5000731;28;20030;-73
2021/10/26 09:52:15;;;;;;;56.77;23.80;;;;;;;;;;5000808;28;20030;-74
2021/10/26 09:54:44;;;;;;;60.57;23.27;;;;;;;;;;4989598;28;20065;-73
2021/10/26 09:57:14;;;;;;;53.17;23.63;;;;;;;;;;5001215;28;20030;-74
2021/10/26 09:59:54;;;;;;;64.17;23.40;;;;;;;;;;5001539;28;20054;-72
2021/10/26 10:02:25;;;;;;;49.33;22.00;;;;;;;;;;5000880;28;20121;-72
2021/10/26 10:04:59;;;;;;;52.40;21.20;;;;;;;;;;5002388;28;20026;-75
2021/10/26 10:07:37;;;;;;;51.40;21.60;;;;;;;;;;5002939;28;20708;-73
2021/10/26 10:10:09;;;;;;;57.43;23.53;;;;;;;;;;5002836;28;20599;-73
2021/10/26 10:12:38;;;;;;;52.60;24.48;;;;;;;;;;4985337;28;20076;-73
2021/10/26 10:15:06;;;;;;;56.07;23.00;;;;;;;;;;5002881;28;20038;-74
2021/10/26 10:17:36;;;;;;;52.70;21.67;;;;;;;;;;4988117;28;20026;-75
2021/10/26 10:20:10;;;;;;;60.17;23.53;;;;;;;;;;5005249;28;20117;-74
2021/10/26 10:22:41;;;;;;;53.47;23.63;;;;;;;;;;5003019;28;20026;-73
2021/10/26 10:25:09;;;;;;;52.47;23.27;;;;;;;;;;5003143;28;20026;-75
2021/10/26 10:27:38;;;;;;;55.40;22.83;;;;;;;;;;5003254;28;20019;-74
2021/10/26 10:30:11;;;;;;;64.67;22.67;;;;;;;;;;5002270;28;20030;-73
2021/10/26 10:32:39;;;;;;;54.07;24.00;;;;;;;;;;4999654;28;20057;-74
2021/10/26 10:35:18;;;;;;;64.70;22.40;;;;;;;;;;4987277;28;20036;-74
2021/10/26 10:37:49;;;;;;;60.90;23.80;;;;;;;;;;5003052;28;20034;-75
2021/10/26 10:40:23;;;;;;;65.10;24.80;;;;;;;;;;4985066;28;20363;-74
2021/10/26 10:42:52;;;;;;;61.87;24.37;;;;;;;;;;4984423;28;20045;-72
2021/10/26 10:45:36;;;;;;;75.30;32.90;;;;;;;;;;4983787;28;20443;-73
2021/10/26 10:48:23;;;;;;;60.67;23.60;;;;;;;;;;4999575;28;20026;-72
2021/10/26 10:51:09;;;;;;;57.50;24.40;;;;;;;;;;4998208;28;20030;-73
2021/10/26 10:53:37;;;;;;;58.40;24.27;;;;;;;;;;4982576;28;20026;-73
2021/10/26 10:56:19;;;;;;;80.00;26.23;;;;;;;;;;4983920;28;20030;-73
2021/10/26 10:58:49;;;;;;;56.63;25.10;;;;;;;;;;5000417;28;20042;-73
2021/10/26 11:01:33;;;;;;;62.30;23.77;;;;;;;;;;4980548;28;20136;-72
2021/10/26 11:04:22;;;;;;;59.43;24.07;;;;;;;;;;4982925;28;20038;-73
2021/10/26 11:06:51;;;;;;;55.30;22.73;;;;;;;;;;4997027;28;20053;-71
2021/10/26 11:09:34;;;;;;;64.33;26.97;;;;;;;;;;4999977;28;20113;-72
2021/10/26 11:12:20;;;;;;;69.00;26.70;;;;;;;;;;4995371;28;20026;-74
2021/10/26 11:14:58;;;;;;;61.33;23.88;;;;;;;;;;4999252;28;20030;-73
2021/10/26 11:17:40;;;;;;;55.60;23.65;;;;;;;;;;4998117;28;20022;-72
2021/10/26 11:20:29;;;;;;;63.77;26.17;;;;;;;;;;4983441;28;20775;-73
2021/10/26 11:23:08;;;;;;;58.05;25.25;;;;;;;;;;4981601;28;20394;-72
2021/10/26 11:25:39;;;;;;;48.53;22.77;;;;;;;;;;4982303;28;20015;-72
2021/10/26 11:28:17;;;;;;;58.42;22.70;;;;;;;;;;4999061;28;20034;-72
2021/10/26 11:30:44;;;;;;;52.80;23.45;;;;;;;;;;4981193;28;20129;-73
2021/10/26 11:33:13;;;;;;;55.55;22.92;;;;;;;;;;4998683;28;20451;-72
2021/10/26 11:35:53;;;;;;;42.65;19.25;;;;;;;;;;4997780;28;20038;-72
2021/10/26 11:38:27;;;;;;;44.60;19.50;;;;;;;;;;4999412;28;20030;-73
2021/10/26 11:41:07;;;;;;;48.47;18.38;;;;;;;;;;4994436;28;20450;-73
2021/10/26 11:43:52;;;;;;;48.97;20.30;;;;;;;;;;4982066;28;20121;-72
2021/10/26 11:46:25;;;;;;;52.15;20.25;;;;;;;;;;4982170;28;20486;-73
2021/10/26 11:48:55;;;;;;;59.28;21.65;;;;;;;;;;4998907;28;20468;-72
2021/10/26 11:51:28;;;;;;;56.08;24.90;;;;;;;;;;4979975;28;20478;-71
2021/10/26 11:54:19;;;;;;;45.70;20.17;;;;;;;;;;4983725;28;20039;-73
2021/10/26 11:56:59;;;;;;;41.78;19.27;;;;;;;;;;4996278;28;20046;-72
2021/10/26 11:59:25;;;;;;;42.33;18.90;;;;;;;;;;4998304;28;20133;-74
2021/10/26 12:01:59;;;;;;;41.03;19.05;;;;;;;;;;4995804;28;20131;-74
2021/10/26 12:04:30;;;;;;;45.30;18.10;;;;;;;;;;4983769;28;20050;-74
2021/10/26 12:07:01;;;;;;;40.80;17.47;;;;;;;;;;4998558;28;20421;-73
2021/10/26 12:09:28;;;;;;;36.90;17.52;;;;;;;;;;5000601;28;20342;-74
2021/10/26 12:11:56;;;;;;;41.42;16.83;;;;;;;;;;4978914;28;20061;-73
2021/10/26 12:14:28;;;;;;;42.05;17.90;;;;;;;;;;4996821;28;20915;-73
2021/10/26 12:17:21;;;;;;;40.80;19.05;;;;;;;;;;4996012;28;20034;-72
2021/10/26 12:20:02;;;;;;;46.70;17.80;;;;;;;;;;4983251;28;20141;-74
2021/10/26 12:22:53;;;;;;;37.35;17.00;;;;;;;;;;4994550;28;20133;-73
2021/10/26 12:25:25;;;;;;;39.42;17.00;;;;;;;;;;4982989;28;20144;-72
2021/10/26 12:27:56;;;;;;;36.45;15.55;;;;;;;;;;4982832;28;20042;-74
2021/10/26 12:30:24;;;;;;;34.40;14.75;;;;;;;;;;4996500;28;20533;-75
2021/10/26 12:33:01;;;;;;;40.15;15.85;;;;;;;;;;4981462;28;20138;-73
2021/10/26 12:35:51;;;;;;;40.10;16.60;;;;;;;;;;4982653;28;20038;-74
2021/10/26 12:38:17;;;;;;;35.90;14.50;;;;;;;;;;4985029;28;20360;-73
2021/10/26 12:40:49;;;;;;;37.40;16.00;;;;;;;;;;4995225;28;20602;-73
2021/10/26 12:43:23;;;;;;;28.33;14.48;;;;;;;;;;4996428;28;20045;-74
2021/10/26 12:45:54;;;;;;;35.83;14.02;;;;;;;;;;4988697;28;20046;-73
2021/10/26 12:48:22;;;;;;;34.78;16.02;;;;;;;;;;4996828;28;20128;-74
2021/10/26 12:50:56;;;;;;;27.60;12.10;;;;;;;;;;4978591;28;20498;-75
2021/10/26 12:53:37;;;;;;;20.98;10.77;;;;;;;;;;4981552;28;20698;-75
2021/10/26 12:56:18;;;;;;;19.48;9.55;;;;;;;;;;4995887;28;20045;-73
2021/10/26 12:58:52;;;;;;;29.75;12.23;;;;;;;;;;4996351;28;20049;-72
2021/10/26 13:01:30;;;;;;;26.48;11.90;;;;;;;;;;4994969;28;20066;-72
2021/10/26 13:04:19;;;;;;;24.73;10.02;;;;;;;;;;4982578;28;20375;-74
2021/10/26 13:06:58;;;;;;;45.50;15.48;;;;;;;;;;4985288;28;20045;-74
2021/10/26 13:09:52;;;;;;;24.95;10.75;;;;;;;;;;4996986;28;20034;-74
2021/10/26 13:12:27;;;;;;;25.85;10.73;;;;;;;;;;4982268;28;20834;-75
2021/10/26 13:14:54;;;;;;;25.65;10.45;;;;;;;;;;5003926;28;20133;-73
2021/10/26 13:17:38;;;;;;;25.92;10.98;;;;;;;;;;4983960;28;20236;-73
2021/10/26 13:20:24;;;;;;;23.95;8.98;;;;;;;;;;4997513;28;20027;-74
2021/10/26 13:23:05;;;;;;;21.00;7.72;;;;;;;;;;4983298;28;20541;-74
2021/10/26 13:25:53;;;;;;;13.80;6.85;;;;;;;;;;4986847;28;20076;-74
2021/10/26 13:28:27;;;;;;;17.27;7.40;;;;;;;;;;5001842;28;20609;-73
2021/10/26 13:30:59;;;;;;;16.02;6.80;;;;;;;;;;4998404;28;20049;-73
2021/10/26 13:33:25;;;;;;;;;;;;;;;;;;5000070;28;20251;-74
2021/10/26 13:35:54;;;;;;;14.20;7.43;;;;;;;;;;4983210;28;19960;-73
2021/10/26 13:38:25;;;;;;;15.52;7.53;;;;;;;;;;4999360;28;20140;-74
2021/10/26 13:40:52;;;;;;;15.20;7.80;;;;;;;;;;4998963;28;20061;-72
2021/10/26 13:43:19;;;;;;;19.75;9.65;;;;;;;;;;4992148;28;20030;-73
2021/10/26 13:45:46;;;;;;;18.15;9.63;;;;;;;;;;4999844;28;20583;-74
2021/10/26 13:48:13;;;;;;;25.55;10.57;;;;;;;;;;4999871;28;20034;-73
2021/10/26 13:50:41;;;;;;;23.75;11.52;;;;;;;;;;4998657;28;20816;-72
2021/10/26 13:53:13;;;;;;;29.88;11.13;;;;;;;;;;4985444;28;20110;-74
2021/10/26 13:55:45;;;;;;;29.63;12.70;;;;;;;;;;4987570;28;20090;-74
2021/10/26 13:58:11;;;;;;;25.05;12.20;;;;;;;;;;4994129;28;20038;-73
2021/10/26 14:00:41;;;;;;;25.05;12.82;;;;;;;;;;5004449;28;20038;-74
2021/10/26 14:03:10;;;;;;;26.85;12.18;;;;;;;;;;4997727;28;20121;-72
2021/10/26 14:05:36;;;;;;;30.60;13.50;;;;;;;;;;5003330;28;20022;-73
2021/10/26 14:08:04;;;;;;;32.72;13.70;;;;;;;;;;4987967;28;20030;-73
2021/10/26 14:10:29;;;;;;;31.02;14.93;;;;;;;;;;4986143;28;20023;-72
2021/10/26 14:12:55;;;;;;;29.13;14.85;;;;;;;;;;5004583;28;20040;-73
2021/10/26 14:15:22;;;;;;;38.65;16.50;;;;;;;;;;4984848;28;20156;-73
2021/10/26 14:17:48;;;;;;;44.72;17.02;;;;;;;;;;4984777;28;20038;-73
2021/10/26 14:20:19;;;;;;;31.60;15.02;;;;;;;;;;4991525;28;20089;-73
2021/10/26 14:22:51;;;;;;;35.30;14.80;;;;;;;;;;5005724;28;20556;-73
2021/10/26 14:25:18;;;;;;;37.10;14.10;;;;;;;;;;4988233;28;20043;-71
2021/10/26 14:27:45;;;;;;;41.70;15.55;;;;;;;;;;4990294;28;20449;-73
2021/10/26 14:30:13;;;;;;;37.88;14.73;;;;;;;;;;4989503;28;20074;-73
2021/10/26 14:32:48;;;;;;;35.78;15.38;;;;;;;;;;5006383;28;20050;-75
2021/10/26 14:35:22;;;;;;;35.75;17.58;;;;;;;;;;4990456;28;20072;-73
2021/10/26 14:37:53;;;;;;;35.90;14.90;;;;;;;;;;5004983;28;21263;-74
2021/10/26 14:54:02;;;;;;;38.28;15.55;;;;;;;;;;4976986;28;20096;-74